Pineville, Arkansas
Current Conditions -  °F | °C
As of 6:53 AM on Thursday 18 Dec 2014 (Local Time) from KBPK Reporting Station
Overcast Overcast  
Wind Chill: 29°   Ceiling: 600
Heat Index: 33°   Visibility: 7mi
Dew Point: 32°   Wind: 5mph
Humidity: 96%   Direction: 130°SE
Pressure: 30.21"   Gusts: NA
Location:  36.16°N, 92.11°W
Report Text: KBPK 181253Z AUTO 13004KT 7SM OVC006 01/00 A3021 RMK AO2 SLP235 T00060000 $
Loading
Personal Weather Stations






























Interactive Weather Map New forecast layout! Learn more

10-Day Weather Forecast

Advertisements
Track Severe Weather on mobile